Time;durP1;ratioP1;P1;durP2;ratioP2;P2;SDS_P1;SDS_P2;PMS_P1;PMS_P2;Temp;Humidity;BMP_temperature;BMP_pressure;BME280_temperature;BME280_humidity;BME280_pressure;Samples;Min_cycle;Max_cycle;Signal;HPM_P1;HPM_P2
2021/09/27 00:00:39;;;;;;;16.43;12.67;;;;;;;14.68;95.24;101330.41;2066458;28;20471;-68
2021/09/27 00:01:41;;;;;;;17.00;12.20;;;;;;;14.69;95.58;101333.91;2066392;28;20022;-67
2021/09/27 00:02:41;;;;;;;16.67;12.23;;;;;;;14.67;95.51;101328.72;2066643;28;20018;-66
2021/09/27 00:03:42;;;;;;;21.07;12.00;;;;;;;14.64;94.64;101328.00;2066660;28;20034;-67
2021/09/27 00:04:42;;;;;;;19.00;13.27;;;;;;;14.64;95.67;101326.25;2065834;28;20026;-68
2021/09/27 00:05:43;;;;;;;16.20;12.43;;;;;;;14.61;95.37;101323.78;2065790;28;20505;-69
2021/09/27 00:06:43;;;;;;;;;;;;;;;14.62;95.31;101329.88;2067003;28;20114;-68
2021/09/27 00:07:44;;;;;;;19.13;12.15;;;;;;;14.64;95.59;101322.75;2066411;28;20386;-68
2021/09/27 00:08:45;;;;;;;15.75;11.80;;;;;;;14.64;95.71;101323.63;2066576;28;20039;-69
2021/09/27 00:09:45;;;;;;;16.40;12.82;;;;;;;14.64;95.55;101321.00;2066395;28;20076;-66
2021/09/27 00:10:47;;;;;;;16.73;12.57;;;;;;;14.64;95.54;101323.63;2066385;28;20060;-68
2021/09/27 00:11:47;;;;;;;15.55;12.40;;;;;;;14.64;95.64;101323.63;2066628;28;20027;-69
2021/09/27 00:12:49;;;;;;;17.07;13.13;;;;;;;14.67;95.92;101318.22;2066591;28;20033;-67
2021/09/27 00:13:53;;;;;;;19.08;13.02;;;;;;;14.67;95.50;101320.84;2065647;28;20030;-66
2021/09/27 00:14:54;;;;;;;16.75;12.23;;;;;;;14.65;95.48;101317.44;2066014;28;20049;-67
2021/09/27 00:15:55;;;;;;;14.00;11.53;;;;;;;14.63;95.65;101321.94;2066375;28;20018;-68
2021/09/27 00:16:55;;;;;;;21.13;13.30;;;;;;;14.61;95.44;101323.78;2066209;28;20074;-66
2021/09/27 00:17:55;;;;;;;17.50;13.50;;;;;;;14.61;95.67;101322.94;2073762;28;20490;-67
2021/09/27 00:18:56;;;;;;;16.87;12.80;;;;;;;14.62;95.86;101324.63;2073901;28;20088;-66
2021/09/27 00:19:56;;;;;;;15.13;12.50;;;;;;;14.60;95.96;101315.97;2066427;28;20034;-67
2021/09/27 00:20:59;;;;;;;16.47;11.50;;;;;;;14.60;95.83;101321.22;2066369;28;20030;-67
2021/09/27 00:22:01;;;;;;;17.10;11.80;;;;;;;14.62;95.86;101325.50;2066257;28;20034;-67
2021/09/27 00:23:02;;;;;;;16.60;12.65;;;;;;;14.62;95.76;101322.88;2066046;28;20046;-67
2021/09/27 00:24:03;;;;;;;;;;;;;;;14.60;95.77;101316.84;2066399;28;20043;-68
2021/09/27 00:25:05;;;;;;;18.48;11.52;;;;;;;14.62;95.89;101317.63;2065820;28;19933;-68
2021/09/27 00:26:06;;;;;;;15.07;12.68;;;;;;;14.61;95.92;101317.69;2065627;28;20084;-68
2021/09/27 00:27:07;;;;;;;19.98;12.52;;;;;;;14.61;95.98;101313.25;2066470;28;20053;-68
2021/09/27 00:28:08;;;;;;;16.40;13.60;;;;;;;14.63;95.91;101321.06;2066227;28;20476;-68
2021/09/27 00:29:09;;;;;;;18.17;13.40;;;;;;;14.61;95.81;101313.25;2066118;28;20467;-69
2021/09/27 00:30:10;;;;;;;16.88;13.10;;;;;;;14.60;96.00;101311.56;2066522;28;20058;-68
2021/09/27 00:31:11;;;;;;;17.77;12.63;;;;;;;14.59;96.14;101309.03;2066171;28;20109;-67
2021/09/27 00:32:12;;;;;;;18.05;13.43;;;;;;;14.58;96.11;101307.34;2066244;28;20514;-69
2021/09/27 00:33:12;;;;;;;18.40;12.27;;;;;;;14.62;96.22;101311.50;2066237;28;20030;-68
2021/09/27 00:34:12;;;;;;;16.70;13.03;;;;;;;14.61;96.10;101312.44;2066132;28;20026;-65
2021/09/27 00:35:16;;;;;;;19.73;12.57;;;;;;;14.59;96.05;101320.41;2066378;28;20030;-68
2021/09/27 00:36:17;;;;;;;16.23;13.07;;;;;;;14.59;96.43;101309.03;2066380;28;20026;-68
2021/09/27 00:37:18;;;;;;;17.42;11.85;;;;;;;14.61;96.17;101308.00;2065923;28;20038;-68
2021/09/27 00:38:19;;;;;;;15.57;12.27;;;;;;;14.62;96.07;101304.47;2065571;28;20403;-66
2021/09/27 00:39:19;;;;;;;17.83;12.35;;;;;;;14.63;95.73;101302.69;2066099;28;20050;-67
2021/09/27 00:40:28;;;;;;;17.53;12.33;;;;;;;14.62;95.99;101304.47;2066212;28;20034;-68
2021/09/27 00:41:28;;;;;;;15.25;12.57;;;;;;;14.61;96.01;101302.75;2065689;28;20022;-69
2021/09/27 00:42:29;;;;;;;16.43;11.07;;;;;;;14.61;95.95;101300.13;2065607;28;20105;-67
2021/09/27 00:43:34;;;;;;;17.37;12.37;;;;;;;14.61;95.82;101297.50;2066283;28;20169;-69
2021/09/27 00:44:37;;;;;;;14.68;11.63;;;;;;;14.58;95.71;101302.94;2066223;28;20096;-67
2021/09/27 00:45:42;;;;;;;16.83;12.57;;;;;;;14.54;96.14;101299.63;2066216;28;20026;-69
2021/09/27 00:46:42;;;;;;;17.33;12.75;;;;;;;14.50;96.46;101291.97;2066481;28;20026;-68
2021/09/27 00:47:42;;;;;;;16.50;11.93;;;;;;;14.49;96.37;101298.16;2066181;28;20027;-68
2021/09/27 00:48:43;;;;;;;18.00;12.93;;;;;;;14.45;96.25;101307.97;2066544;28;20077;-67
2021/09/27 00:49:44;;;;;;;21.00;13.70;;;;;;;14.45;96.56;101294.84;2066405;28;20371;-66
2021/09/27 00:50:49;;;;;;;16.53;12.03;;;;;;;14.48;96.69;101293.84;2066235;28;20076;-67
2021/09/27 00:51:49;;;;;;;19.50;12.15;;;;;;;14.48;96.77;101296.47;2065570;28;20133;-68
2021/09/27 00:52:50;;;;;;;21.53;12.37;;;;;;;14.48;96.43;101301.72;2065733;28;20038;-67
2021/09/27 00:53:56;;;;;;;20.63;11.90;;;;;;;14.46;96.75;101303.56;2066087;28;20281;-69
2021/09/27 00:54:56;;;;;;;16.50;11.98;;;;;;;14.48;96.80;101296.47;2066127;28;20154;-66
2021/09/27 00:55:57;;;;;;;21.40;13.87;;;;;;;14.50;96.75;101305.09;2066210;28;20526;-68
2021/09/27 00:57:04;;;;;;;16.73;13.20;;;;;;;14.50;96.47;101299.84;2066158;28;20030;-68
2021/09/27 00:58:04;;;;;;;18.42;13.40;;;;;;;14.49;96.50;101298.16;2066135;28;20076;-69
2021/09/27 00:59:05;;;;;;;21.13;12.77;;;;;;;14.50;96.55;101291.97;2066155;28;20468;-69
2021/09/27 01:00:09;;;;;;;17.17;12.43;;;;;;;14.51;96.82;101301.56;2066359;28;20114;-67
2021/09/27 01:01:10;;;;;;;20.33;13.15;;;;;;;14.50;96.37;101295.44;2065964;28;20398;-69
2021/09/27 01:02:10;;;;;;;18.00;13.17;;;;;;;14.48;96.59;101293.84;2066027;28;20030;-68
2021/09/27 01:03:11;;;;;;;15.98;12.20;;;;;;;14.45;96.53;101297.47;2066092;28;20056;-68
2021/09/27 01:04:12;;;;;;;20.08;13.70;;;;;;;14.44;96.56;101294.94;2065416;28;20125;-68
2021/09/27 01:05:15;;;;;;;20.98;13.85;;;;;;;14.46;97.09;101293.06;2065310;28;20026;-67
2021/09/27 01:06:34;;;;;;;15.93;12.65;;;;;;;14.45;96.54;101299.25;2073122;28;20088;-69
2021/09/27 01:07:40;;;;;;;14.50;11.90;;;;;;;14.39;96.63;101287.28;2065853;28;20377;-69
2021/09/27 01:09:22;;;;;;;16.05;12.27;;;;;;;14.38;96.70;101296.09;2065664;28;20038;-67
2021/09/27 01:10:50;;;;;;;16.35;11.70;;;;;;;14.35;96.82;101291.84;2060052;28;20041;-68
2021/09/27 01:12:18;;;;;;;17.75;12.32;;;;;;;14.40;97.12;101289.81;2073423;28;20045;-67
2021/09/27 01:13:18;;;;;;;16.10;12.25;;;;;;;14.45;97.13;101291.38;2065275;28;20518;-66
2021/09/27 01:14:44;;;;;;;21.47;13.07;;;;;;;14.46;96.80;101290.44;2065310;28;20030;-69
2021/09/27 01:16:14;;;;;;;16.13;11.90;;;;;;;14.43;97.03;101299.31;2066101;28;20277;-66
2021/09/27 01:17:31;;;;;;;19.42;12.50;;;;;;;14.44;97.13;101295.75;2065879;28;20109;-67
2021/09/27 01:18:51;;;;;;;17.67;11.15;;;;;;;14.40;97.02;101297.69;2065502;28;20089;-68
2021/09/27 01:20:08;;;;;;;17.45;11.75;;;;;;;14.40;97.45;101302.94;2065455;28;20507;-70
2021/09/27 01:21:15;;;;;;;20.05;13.10;;;;;;;14.41;97.31;101309.91;2065952;28;20510;-68
2021/09/27 01:22:47;;;;;;;17.13;12.13;;;;;;;14.38;97.52;101304.81;2065952;28;20034;-66
2021/09/27 01:23:59;;;;;;;17.83;12.10;;;;;;;14.38;97.45;101309.22;2065025;28;20030;-68
2021/09/27 01:25:18;;;;;;;22.13;13.18;;;;;;;14.38;97.27;101314.47;2065284;28;20472;-66
2021/09/27 01:26:59;;;;;;;20.02;12.73;;;;;;;14.38;97.42;101301.34;2065677;28;20054;-66
2021/09/27 01:28:17;;;;;;;18.40;10.73;;;;;;;14.39;97.28;101303.88;2066019;28;20157;-66
2021/09/27 01:29:42;;;;;;;14.48;10.07;;;;;;;14.39;97.38;101303.03;2065777;28;20030;-68
2021/09/27 01:30:59;;;;;;;17.58;13.75;;;;;;;14.44;97.50;101302.81;2065484;28;20643;-65
2021/09/27 01:32:21;;;;;;;16.33;12.15;;;;;;;14.47;97.45;101300.03;2065552;28;20500;-65
2021/09/27 01:33:40;;;;;;;20.95;12.23;;;;;;;14.46;97.12;101293.06;2065501;28;20030;-68
2021/09/27 01:34:45;;;;;;;16.77;12.85;;;;;;;14.48;97.60;101286.81;2065509;28;20037;-67
2021/09/27 01:36:07;;;;;;;15.98;12.38;;;;;;;14.47;97.22;101289.53;2066195;28;20018;-66
2021/09/27 01:37:25;;;;;;;17.58;12.25;;;;;;;14.46;97.29;101288.66;2067143;28;20030;-67
2021/09/27 01:38:35;;;;;;;17.13;11.45;;;;;;;14.48;97.39;101291.22;2067192;28;20034;-66
2021/09/27 01:39:39;;;;;;;20.30;13.25;;;;;;;14.47;97.32;101289.53;2067169;28;20068;-68
2021/09/27 01:40:58;;;;;;;14.90;12.18;;;;;;;14.47;97.41;101290.34;2067283;28;20476;-68
2021/09/27 01:42:09;;;;;;;17.38;13.00;;;;;;;14.45;97.28;101286.97;2066452;28;20392;-69
2021/09/27 01:43:19;;;;;;;16.88;12.38;;;;;;;14.40;97.14;101281.09;2066783;28;20455;-68
2021/09/27 01:44:27;;;;;;;18.10;11.73;;;;;;;14.42;97.66;101292.38;2067173;28;20037;-68
2021/09/27 01:45:45;;;;;;;16.05;11.98;;;;;;;14.41;97.49;101281.00;2067187;28;20451;-67
2021/09/27 01:46:54;;;;;;;16.65;12.57;;;;;;;14.40;97.46;101295.06;2067134;28;20387;-68
2021/09/27 01:48:07;;;;;;;15.60;11.82;;;;;;;14.36;97.46;101283.03;2067182;28;20029;-68
2021/09/27 01:49:14;;;;;;;20.65;13.32;;;;;;;14.38;97.84;101282.97;2067135;28;20030;-67
2021/09/27 01:50:36;;;;;;;16.48;13.02;;;;;;;14.36;97.48;101272.53;2067014;28;20038;-68
2021/09/27 01:51:55;;;;;;;16.58;12.13;;;;;;;14.36;97.72;101277.78;2066477;28;20117;-67
2021/09/27 01:53:01;;;;;;;16.67;10.75;;;;;;;14.35;98.03;101270.84;2066719;28;20381;-68
2021/09/27 01:54:23;;;;;;;17.60;13.05;;;;;;;14.39;97.96;101271.53;2067130;28;20446;-66
2021/09/27 01:55:34;;;;;;;18.33;12.60;;;;;;;14.39;98.05;101264.50;2067448;28;20171;-67
2021/09/27 01:56:59;;;;;;;14.85;11.93;;;;;;;14.40;97.95;101275.84;2067305;28;20034;-67
2021/09/27 01:58:08;;;;;;;19.75;13.10;;;;;;;14.40;98.27;101267.97;2067237;28;20026;-67
2021/09/27 01:59:16;;;;;;;20.67;12.25;;;;;;;14.42;98.19;101272.22;2067076;28;20360;-67
2021/09/27 02:00:22;;;;;;;17.30;12.43;;;;;;;14.41;97.96;101265.25;2067128;28;20073;-68
2021/09/27 02:01:33;;;;;;;15.43;12.57;;;;;;;14.40;98.18;101263.56;2066966;28;20027;-68
2021/09/27 02:02:40;;;;;;;17.15;11.57;;;;;;;14.39;98.10;101264.50;2067068;28;20373;-68
2021/09/27 02:03:47;;;;;;;18.70;13.25;;;;;;;14.40;98.00;101274.06;2066972;28;20026;-68
2021/09/27 02:05:11;;;;;;;18.85;11.98;;;;;;;14.39;98.30;101261.03;2066400;28;20403;-67
2021/09/27 02:06:21;;;;;;;18.85;13.15;;;;;;;14.39;98.32;101261.88;2066589;28;20026;-69
2021/09/27 02:07:21;;;;;;;18.27;13.23;;;;;;;14.38;98.07;101269.84;2067022;28;20138;-69
2021/09/27 02:08:27;;;;;;;21.65;14.02;;;;;;;14.35;98.08;101270.84;2066907;28;20031;-69
2021/09/27 02:09:36;;;;;;;17.20;12.25;;;;;;;14.33;98.08;101271.84;2067016;28;20022;-68
2021/09/27 02:10:46;;;;;;;18.92;13.80;;;;;;;14.29;98.04;101276.41;2066927;28;20489;-68
2021/09/27 02:11:52;;;;;;;16.85;12.30;;;;;;;14.30;98.27;101270.22;2066933;28;20026;-69
2021/09/27 02:13:06;;;;;;;17.52;12.18;;;;;;;14.29;98.43;101268.53;2066993;28;20019;-68
2021/09/27 02:14:37;;;;;;;19.48;12.13;;;;;;;14.29;98.28;101265.91;2066939;28;20082;-68
2021/09/27 02:15:47;;;;;;;18.35;13.32;;;;;;;14.29;98.42;101281.66;2066964;28;20412;-68
2021/09/27 02:17:02;;;;;;;17.73;12.43;;;;;;;14.32;98.55;101278.88;2066916;28;20034;-68
2021/09/27 02:18:09;;;;;;;17.60;11.38;;;;;;;14.35;99.10;101278.72;2066888;28;20105;-68
2021/09/27 02:19:26;;;;;;;18.25;12.32;;;;;;;14.35;98.58;101273.47;2066895;28;20038;-68
2021/09/27 02:20:32;;;;;;;18.35;12.23;;;;;;;14.34;98.67;101276.16;2066908;28;20026;-68
2021/09/27 02:21:38;;;;;;;17.42;12.27;;;;;;;14.34;98.54;101278.78;2066963;28;20409;-68
2021/09/27 02:22:58;;;;;;;15.55;12.18;;;;;;;14.31;98.66;101271.94;2066846;28;20396;-68
2021/09/27 02:24:06;;;;;;;14.43;10.85;;;;;;;14.32;98.60;101270.13;2066248;28;20125;-67
2021/09/27 02:25:09;;;;;;;15.38;11.80;;;;;;;14.31;98.54;101269.31;2059022;28;20081;-67
2021/09/27 02:26:10;;;;;;;16.63;11.90;;;;;;;14.31;98.74;101264.06;2066327;28;20034;-69
2021/09/27 02:27:10;;;;;;;18.00;13.05;;;;;;;14.28;98.47;101264.22;2066834;28;20032;-67
2021/09/27 02:28:14;;;;;;;16.95;12.45;;;;;;;14.26;98.63;101271.31;2066051;28;20038;-68
2021/09/27 02:29:16;;;;;;;20.92;13.85;;;;;;;14.24;98.68;101260.03;2066196;28;20033;-68
2021/09/27 02:30:20;;;;;;;18.98;12.45;;;;;;;14.23;98.85;101264.44;2066813;28;20033;-69
2021/09/27 02:32:02;;;;;;;16.80;13.80;;;;;;;14.23;98.69;101258.34;2066768;28;20122;-68
2021/09/27 02:33:08;;;;;;;15.68;12.15;;;;;;;14.21;98.91;101253.19;2049740;29;20027;-68
2021/09/27 02:34:26;;;;;;;16.65;11.60;;;;;;;14.20;98.64;101258.50;2049973;29;20093;-67
2021/09/27 02:35:33;;;;;;;15.43;11.63;;;;;;;14.21;98.92;101258.44;2049832;29;20031;-68
2021/09/27 02:36:43;;;;;;;16.73;11.75;;;;;;;14.18;98.82;101260.34;2041800;29;20019;-68
2021/09/27 02:37:51;;;;;;;14.75;11.75;;;;;;;14.14;98.98;101252.63;2043203;29;20122;-68
2021/09/27 02:39:01;;;;;;;16.60;11.20;;;;;;;14.12;98.91;101249.25;2061715;28;20125;-68
2021/09/27 02:40:07;;;;;;;15.88;11.77;;;;;;;14.15;99.25;101243.84;2066844;28;20494;-68
2021/09/27 02:41:40;;;;;;;21.88;12.50;;;;;;;14.15;99.15;101246.47;2066753;28;20045;-69
2021/09/27 02:42:49;;;;;;;15.75;11.57;;;;;;;14.15;99.27;101251.72;2066216;28;20118;-69
2021/09/27 02:43:50;;;;;;;15.70;12.30;;;;;;;14.15;99.48;101249.09;2066723;28;20033;-67
2021/09/27 02:44:50;;;;;;;16.50;11.57;;;;;;;14.15;99.44;101250.84;2066719;28;20464;-68
2021/09/27 02:45:52;;;;;;;17.43;12.70;;;;;;;14.15;99.39;101243.84;2066613;28;20042;-69
2021/09/27 02:46:54;;;;;;;17.52;12.27;;;;;;;14.14;99.38;101239.50;2066142;28;20058;-68
2021/09/27 02:48:02;;;;;;;18.15;11.48;;;;;;;14.15;99.40;101253.47;2066700;28;20030;-69
2021/09/27 02:49:12;;;;;;;21.30;12.88;;;;;;;14.17;99.49;101249.03;2066691;28;20053;-69
2021/09/27 02:50:20;;;;;;;18.80;13.38;;;;;;;14.20;99.43;101250.63;2065952;28;20022;-68
2021/09/27 02:51:21;;;;;;;19.20;13.27;;;;;;;14.18;99.45;101255.09;2066013;28;20033;-69
2021/09/27 02:52:22;;;;;;;19.05;13.02;;;;;;;14.15;99.30;101254.34;2066660;28;20122;-68
2021/09/27 02:53:23;;;;;;;17.15;13.55;;;;;;;14.14;99.33;101252.63;2065907;28;20511;-68
2021/09/27 02:54:37;;;;;;;17.27;11.68;;;;;;;14.11;99.27;101252.81;2066098;28;20018;-68
2021/09/27 02:55:57;;;;;;;17.90;11.90;;;;;;;14.10;99.41;101250.25;2066583;28;20019;-67
2021/09/27 02:57:04;;;;;;;18.65;11.93;;;;;;;14.11;99.41;101252.81;2066666;28;20030;-67
2021/09/27 02:58:36;;;;;;;16.67;11.77;;;;;;;14.15;99.63;101254.34;2066437;28;20030;-69
2021/09/27 03:00:18;;;;;;;16.65;11.63;;;;;;;14.15;99.55;101245.59;2065923;28;20022;-68
2021/09/27 03:01:43;;;;;;;21.05;12.82;;;;;;;14.11;99.38;101252.81;2065911;28;20567;-69
2021/09/27 03:02:57;;;;;;;17.35;11.88;;;;;;;14.07;99.42;101246.00;2066605;28;20022;-67
2021/09/27 03:04:09;;;;;;;15.50;11.70;;;;;;;14.10;99.39;101261.59;2066469;28;20065;-68
2021/09/27 03:05:39;;;;;;;22.73;13.65;;;;;;;14.10;99.59;101253.72;2066526;28;20034;-68
2021/09/27 03:07:04;;;;;;;16.63;12.27;;;;;;;14.09;99.60;101259.06;2066462;28;20506;-69
2021/09/27 03:08:26;;;;;;;19.35;11.38;;;;;;;14.08;99.53;101255.59;2066385;28;20034;-67
2021/09/27 03:09:41;;;;;;;15.57;11.98;;;;;;;14.13;99.71;101252.72;2065951;28;20076;-68
2021/09/27 03:11:28;;;;;;;20.65;12.38;;;;;;;14.20;99.72;101255.88;2066143;28;20034;-66
2021/09/27 03:13:03;;;;;;;16.85;11.10;;;;;;;14.25;99.77;101246.84;2066506;28;20157;-69
2021/09/27 03:14:24;;;;;;;16.00;12.07;;;;;;;14.31;99.61;101250.94;2066494;28;20097;-66
2021/09/27 03:15:40;;;;;;;15.88;12.35;;;;;;;14.35;99.63;101249.84;2066482;28;20022;-67
2021/09/27 03:16:48;;;;;;;19.48;11.55;;;;;;;14.36;99.49;101251.53;2065813;28;20080;-67
2021/09/27 03:17:58;;;;;;;14.45;11.48;;;;;;;14.39;99.23;101248.75;2065942;28;20031;-68
2021/09/27 03:19:17;;;;;;;17.55;11.95;;;;;;;14.44;99.24;101252.91;2066386;28;20031;-68
2021/09/27 03:20:31;;;;;;;18.65;12.15;;;;;;;14.46;99.39;101251.03;2066531;28;20037;-68
2021/09/27 03:21:43;;;;;;;19.17;12.80;;;;;;;14.48;99.00;101246.56;2066465;28;20034;-67
2021/09/27 03:22:53;;;;;;;17.42;12.00;;;;;;;14.50;99.21;101242.94;2066407;28;20057;-67
2021/09/27 03:24:30;;;;;;;15.25;12.07;;;;;;;14.54;99.20;101239.22;2065748;28;20026;-68
2021/09/27 03:25:51;;;;;;;16.33;11.48;;;;;;;14.60;98.92;101247.69;2066179;28;20383;-67
2021/09/27 03:27:06;;;;;;;18.63;12.05;;;;;;;14.63;98.87;101248.38;2066426;28;20026;-67
2021/09/27 03:28:31;;;;;;;17.17;12.50;;;;;;;14.67;98.79;101249.91;2066303;28;20072;-68
2021/09/27 03:29:56;;;;;;;16.77;10.85;;;;;;;14.71;98.21;101252.38;2065714;28;20042;-67
2021/09/27 03:30:59;;;;;;;15.90;11.25;;;;;;;14.75;97.90;101248.66;2065983;28;20030;-68
2021/09/27 03:32:29;;;;;;;18.38;12.82;;;;;;;14.80;98.00;101249.28;2066394;28;20038;-66
2021/09/27 03:33:58;;;;;;;13.55;10.90;;;;;;;14.84;98.02;101250.81;2061977;28;20038;-66
2021/09/27 03:35:06;;;;;;;14.10;11.02;;;;;;;14.86;98.13;101246.34;2065985;28;20034;-66
2021/09/27 03:36:18;;;;;;;15.90;11.75;;;;;;;14.88;97.57;101244.47;2066350;28;20022;-67
2021/09/27 03:37:30;;;;;;;17.20;12.18;;;;;;;14.89;97.34;101243.53;2066319;28;20038;-67
2021/09/27 03:38:38;;;;;;;15.63;11.40;;;;;;;14.93;97.22;101244.22;2066300;28;20054;-66
2021/09/27 03:39:45;;;;;;;21.70;12.32;;;;;;;14.95;97.28;101241.50;2066265;28;20018;-66
2021/09/27 03:40:54;;;;;;;21.20;13.18;;;;;;;14.95;97.54;101247.59;2065644;28;20114;-69
2021/09/27 03:42:39;;;;;;;17.90;12.80;;;;;;;14.99;97.46;101245.66;2065801;28;20497;-66
2021/09/27 03:44:06;;;;;;;13.07;11.30;;;;;;;15.02;97.27;101240.25;2065340;28;20030;-67
2021/09/27 03:45:15;;;;;;;16.35;11.85;;;;;;;15.03;97.16;101236.69;2065945;28;20018;-66
2021/09/27 03:46:36;;;;;;;19.60;12.13;;;;;;;15.04;96.72;101246.25;2066208;28;20034;-66
2021/09/27 03:47:49;;;;;;;17.77;11.93;;;;;;;15.06;96.70;101245.22;2066374;28;20108;-67
2021/09/27 03:49:13;;;;;;;15.80;12.10;;;;;;;15.11;96.83;101238.88;2066078;28;20505;-66
2021/09/27 03:50:19;;;;;;;18.45;11.60;;;;;;;15.11;96.53;101242.34;2066213;28;20125;-67
2021/09/27 03:52:06;;;;;;;16.23;12.07;;;;;;;15.11;96.39;101237.09;2066188;28;20033;-67
2021/09/27 03:53:13;;;;;;;20.55;12.30;;;;;;;15.11;96.61;101233.63;2066213;28;20034;-67
2021/09/27 03:54:21;;;;;;;14.38;12.25;;;;;;;15.11;96.48;101233.63;2066233;28;20384;-65
2021/09/27 03:55:35;;;;;;;16.15;13.05;;;;;;;15.12;96.26;101237.97;2066034;28;20399;-65
2021/09/27 03:56:44;;;;;;;19.13;12.07;;;;;;;15.13;96.42;101242.28;2066195;28;20030;-66
2021/09/27 03:57:51;;;;;;;17.92;12.57;;;;;;;15.11;96.21;101242.34;2066011;28;20066;-68
2021/09/27 03:59:02;;;;;;;18.38;11.95;;;;;;;15.12;96.53;101232.69;2065468;28;20117;-68
2021/09/27 04:00:07;;;;;;;18.13;12.98;;;;;;;15.13;96.84;101234.38;2066179;28;20072;-66
2021/09/27 04:01:18;;;;;;;14.48;11.50;;;;;;;15.14;96.67;101231.69;2066276;28;20097;-68
2021/09/27 04:02:42;;;;;;;18.23;11.75;;;;;;;15.13;96.41;101235.25;2066423;28;20026;-68
2021/09/27 04:03:56;;;;;;;19.17;11.75;;;;;;;15.12;96.57;101228.28;2066269;28;20034;-65
2021/09/27 04:05:17;;;;;;;17.02;12.80;;;;;;;15.12;96.46;101233.53;2066041;28;20034;-66
2021/09/27 04:06:31;;;;;;;18.42;12.38;;;;;;;15.11;96.75;101237.09;2066134;28;20038;-67
2021/09/27 04:07:40;;;;;;;18.17;12.00;;;;;;;15.12;96.85;101225.66;2065964;28;20383;-66
2021/09/27 04:09:01;;;;;;;17.60;11.73;;;;;;;15.10;96.35;101230.16;2066067;28;20043;-67
2021/09/27 04:10:20;;;;;;;19.88;12.57;;;;;;;15.10;96.57;101235.41;2066061;28;20057;-66
2021/09/27 04:12:02;;;;;;;20.65;12.10;;;;;;;15.08;96.38;101231.19;2066151;28;20038;-67
2021/09/27 04:13:38;;;;;;;20.02;12.35;;;;;;;15.06;96.64;101228.63;2060397;28;20030;-68
2021/09/27 04:14:41;;;;;;;15.98;12.20;;;;;;;15.00;96.47;101228.97;2065999;28;20390;-68
2021/09/27 04:16:04;;;;;;;20.50;13.30;;;;;;;14.92;96.55;101222.34;2065969;28;20084;-68
2021/09/27 04:17:21;;;;;;;16.33;12.43;;;;;;;14.91;97.13;101231.16;2066005;28;20041;-68
2021/09/27 04:18:31;;;;;;;22.88;13.60;;;;;;;14.91;97.39;101223.28;2066025;28;20037;-67
2021/09/27 04:20:27;;;;;;;18.23;12.23;;;;;;;14.88;97.08;101218.19;2065862;28;20037;-68
2021/09/27 04:21:54;;;;;;;19.27;12.25;;;;;;;14.86;96.91;101222.69;2042001;28;20061;-68
2021/09/27 04:23:19;;;;;;;16.80;12.95;;;;;;;14.81;97.47;101219.44;2065592;28;20030;-68
2021/09/27 04:24:31;;;;;;;20.65;12.77;;;;;;;14.83;97.65;101225.47;2065905;28;20030;-67
2021/09/27 04:26:06;;;;;;;19.45;12.23;;;;;;;14.86;97.74;101221.84;2066000;28;20033;-66
2021/09/27 04:27:43;;;;;;;16.80;12.38;;;;;;;14.85;97.39;101226.22;2049067;28;20563;-68
2021/09/27 04:29:00;;;;;;;18.67;12.73;;;;;;;14.82;97.54;101221.16;2065192;28;20038;-68
2021/09/27 04:30:41;;;;;;;19.42;13.40;;;;;;;14.83;97.51;101217.59;2065545;28;20451;-68
2021/09/27 04:32:06;;;;;;;17.88;12.27;;;;;;;14.88;97.46;101215.56;2065181;28;20415;-68
2021/09/27 04:33:15;;;;;;;17.90;12.43;;;;;;;14.90;97.54;101216.34;2065495;28;20018;-66
2021/09/27 04:34:25;;;;;;;17.48;12.90;;;;;;;14.89;97.18;101222.50;2065935;28;20045;-67
2021/09/27 04:35:34;;;;;;;18.50;13.05;;;;;;;14.90;97.43;101218.09;2065163;28;20057;-68
2021/09/27 04:36:38;;;;;;;17.55;12.57;;;;;;;14.89;97.17;101212.00;2058248;28;20031;-68
2021/09/27 04:37:39;;;;;;;24.83;13.55;;;;;;;14.90;97.29;101216.34;2065282;28;20487;-67
2021/09/27 04:38:40;;;;;;;17.25;12.98;;;;;;;14.91;97.36;101214.53;2065205;28;20084;-67
2021/09/27 04:39:40;;;;;;;18.20;12.80;;;;;;;14.92;97.16;101216.25;2065198;28;20531;-68
2021/09/27 04:40:53;;;;;;;16.47;13.40;;;;;;;14.93;97.08;101210.91;2065265;28;20041;-68
2021/09/27 04:42:04;;;;;;;20.00;12.48;;;;;;;14.95;97.07;101210.81;2065862;28;20134;-67
2021/09/27 04:43:38;;;;;;;16.58;12.38;;;;;;;15.00;97.27;101218.44;2065889;28;20026;-66
2021/09/27 04:45:12;;;;;;;17.35;13.30;;;;;;;15.02;96.90;101216.59;2065179;28;20044;-66
2021/09/27 04:46:29;;;;;;;16.40;12.07;;;;;;;15.02;96.74;101216.59;2065533;28;20019;-67
2021/09/27 04:48:07;;;;;;;19.95;12.23;;;;;;;15.03;97.03;101213.88;2065119;28;20049;-67
2021/09/27 04:49:26;;;;;;;17.42;11.55;;;;;;;15.03;97.02;101213.03;2062022;28;20026;-66
2021/09/27 04:50:57;;;;;;;15.65;12.35;;;;;;;15.05;96.99;101214.63;2065428;28;20038;-68
2021/09/27 04:52:10;;;;;;;21.57;13.27;;;;;;;15.09;96.82;101212.66;2065050;28;20499;-67
2021/09/27 04:53:40;;;;;;;18.55;12.35;;;;;;;15.10;96.35;101209.13;2065297;28;20112;-68
2021/09/27 04:55:03;;;;;;;22.35;12.40;;;;;;;15.14;96.46;101210.66;2061816;28;20114;-67
2021/09/27 04:56:29;;;;;;;14.32;12.38;;;;;;;15.14;96.37;101200.13;2065616;28;20107;-65
2021/09/27 04:57:44;;;;;;;17.55;13.25;;;;;;;15.18;96.11;101200.78;2065684;28;20022;-68
2021/09/27 04:59:12;;;;;;;17.65;13.52;;;;;;;15.18;96.28;101200.78;2065516;28;20073;-66
2021/09/27 05:00:36;;;;;;;21.67;13.32;;;;;;;15.18;96.12;101206.91;2065678;28;20030;-64
2021/09/27 05:01:53;;;;;;;18.52;12.02;;;;;;;15.21;96.18;101210.28;2065674;28;20022;-66
2021/09/27 05:03:23;;;;;;;16.70;11.95;;;;;;;15.24;95.81;101207.50;2065739;28;20048;-66
2021/09/27 05:04:36;;;;;;;17.90;12.00;;;;;;;15.26;95.98;101200.38;2065730;28;20026;-67
2021/09/27 05:05:50;;;;;;;17.40;13.18;;;;;;;15.25;95.63;101202.16;2065662;28;20446;-68
2021/09/27 05:07:09;;;;;;;20.65;11.77;;;;;;;15.25;96.01;101207.41;2065698;28;20487;-67
2021/09/27 05:08:34;;;;;;;19.02;12.85;;;;;;;15.27;95.87;101202.06;2065478;28;20117;-67
2021/09/27 05:10:05;;;;;;;20.20;12.80;;;;;;;15.27;95.60;101188.91;2066440;28;20029;-68
2021/09/27 05:11:42;;;;;;;18.23;12.73;;;;;;;15.26;95.63;101195.13;2065138;28;20189;-68
2021/09/27 05:12:57;;;;;;;17.83;12.25;;;;;;;15.25;95.70;101202.16;2064948;28;20042;-66
2021/09/27 05:14:22;;;;;;;16.88;12.93;;;;;;;15.27;95.99;101194.19;2065624;28;20037;-67
2021/09/27 05:15:33;;;;;;;15.02;11.98;;;;;;;15.28;95.72;101195.88;2065601;28;20029;-67
2021/09/27 05:16:52;;;;;;;19.50;13.77;;;;;;;15.30;95.79;101188.75;2065580;28;20475;-67
2021/09/27 05:18:10;;;;;;;19.45;13.02;;;;;;;15.29;95.70;101194.91;2064935;28;20034;-69
2021/09/27 05:19:55;;;;;;;17.33;13.10;;;;;;;15.31;95.76;101195.69;2059167;28;20030;-67
2021/09/27 05:21:20;;;;;;;17.65;13.27;;;;;;;15.30;95.50;101194.84;2065335;28;20041;-68
2021/09/27 05:22:41;;;;;;;17.88;11.85;;;;;;;15.32;95.37;101192.13;2065548;28;20038;-68
2021/09/27 05:24:12;;;;;;;19.00;12.57;;;;;;;15.36;95.47;101188.38;2065572;28;20030;-68
2021/09/27 05:25:49;;;;;;;20.73;11.55;;;;;;;15.36;95.58;101188.38;2064926;28;20034;-68
2021/09/27 05:27:13;;;;;;;15.65;10.93;;;;;;;15.37;95.16;101189.25;2065297;28;20029;-68
2021/09/27 05:28:41;;;;;;;16.88;11.85;;;;;;;15.36;95.35;101190.19;2065509;28;20037;-69
2021/09/27 05:30:19;;;;;;;20.48;13.27;;;;;;;15.34;95.34;101189.41;2065618;28;20357;-67
2021/09/27 05:32:13;;;;;;;16.40;13.23;;;;;;;15.31;95.45;101185.19;2065457;28;20026;-66
2021/09/27 05:33:44;;;;;;;21.35;13.18;;;;;;;15.29;95.82;101192.28;2048615;29;20039;-68
2021/09/27 05:35:08;;;;;;;17.77;11.30;;;;;;;15.29;95.69;101197.56;2048628;29;20392;-68